createdAt,value
2019-03-15T00:00:40.920Z,15.83
2019-03-15T00:03:12.118Z,21.25
2019-03-15T00:05:42.530Z,15.85
2019-03-15T00:08:10.984Z,17.80
2019-03-15T00:10:40.979Z,25.02
2019-03-15T00:13:09.568Z,24.63
2019-03-15T00:15:39.599Z,22.07
2019-03-15T00:18:10.027Z,18.65
2019-03-15T00:20:41.101Z,17.35
2019-03-15T00:23:10.567Z,13.30
2019-03-15T00:26:00.809Z,14.98
2019-03-15T00:28:30.798Z,19.35
2019-03-15T00:30:59.332Z,17.10
2019-03-15T00:33:27.817Z,18.95
2019-03-15T00:35:57.549Z,19.98
2019-03-15T00:38:28.624Z,19.25
2019-03-15T00:40:59.723Z,14.87
2019-03-15T00:43:29.063Z,16.55
2019-03-15T00:46:03.148Z,14.60
2019-03-15T00:48:31.640Z,16.55
2019-03-15T00:51:00.097Z,21.05
2019-03-15T00:53:28.646Z,24.92
2019-03-15T00:55:57.215Z,18.10
2019-03-15T00:58:25.744Z,17.65
2019-03-15T01:00:54.222Z,24.87
2019-03-15T01:03:22.761Z,18.35
2019-03-15T01:05:52.855Z,22.80
2019-03-15T01:08:21.378Z,17.32
2019-03-15T01:10:49.891Z,17.82
2019-03-15T01:13:18.420Z,15.32
2019-03-15T01:15:49.017Z,18.07
2019-03-15T01:18:20.721Z,23.80
2019-03-15T01:20:50.891Z,14.33
2019-03-15T01:23:23.698Z,19.17
2019-03-15T01:25:52.202Z,14.70
2019-03-15T01:28:20.678Z,18.87
2019-03-15T01:30:49.142Z,15.53
2019-03-15T01:33:17.611Z,17.05
2019-03-15T01:35:46.091Z,21.82
2019-03-15T01:38:14.622Z,13.67
2019-03-15T01:40:43.255Z,17.00
2019-03-15T01:43:11.759Z,15.43
2019-03-15T01:45:40.206Z,19.75
2019-03-15T01:48:08.687Z,16.27
2019-03-15T01:50:38.674Z,14.53
2019-03-15T01:53:07.141Z,16.93
2019-03-15T01:55:38.741Z,16.75
2019-03-15T01:58:07.191Z,17.73
2019-03-15T02:00:35.842Z,17.12
2019-03-15T02:03:06.111Z,26.65
2019-03-15T02:05:34.650Z,12.18
2019-03-15T02:08:05.908Z,15.13
2019-03-15T02:10:38.095Z,16.95
2019-03-15T02:13:06.535Z,18.67
2019-03-15T02:15:38.078Z,19.15
2019-03-15T02:18:08.317Z,14.83
2019-03-15T02:20:36.840Z,22.22
2019-03-15T02:23:05.335Z,15.88
2019-03-15T02:25:33.941Z,14.93
2019-03-15T02:28:02.438Z,21.23
2019-03-15T02:30:30.948Z,21.20
2019-03-15T02:32:59.451Z,19.50
2019-03-15T02:35:28.098Z,16.87
2019-03-15T02:37:58.339Z,22.90
2019-03-15T02:40:28.497Z,17.98
2019-03-15T02:43:20.933Z,19.42
2019-03-15T02:46:01.467Z,18.77
2019-03-15T02:48:32.912Z,13.70
2019-03-15T02:51:01.044Z,21.12
2019-03-15T02:53:32.224Z,22.10
2019-03-15T02:56:00.878Z,20.85
2019-03-15T02:58:29.396Z,14.83
2019-03-15T03:00:58.264Z,24.95
2019-03-15T03:03:28.300Z,16.30
2019-03-15T03:05:57.533Z,21.30
2019-03-15T03:08:28.344Z,24.63
2019-03-15T03:10:58.689Z,21.27
2019-03-15T03:13:29.443Z,22.02
2019-03-15T03:15:58.161Z,19.60
2019-03-15T03:18:30.917Z,15.98
2019-03-15T03:20:59.400Z,14.83
2019-03-15T03:23:30.785Z,21.17
2019-03-15T03:26:05.319Z,16.90
2019-03-15T03:28:35.352Z,19.80
2019-03-15T03:31:05.497Z,17.25
2019-03-15T03:33:34.020Z,28.65
2019-03-15T03:36:02.651Z,19.85
2019-03-15T03:38:31.136Z,22.37
2019-03-15T03:41:01.349Z,24.10
2019-03-15T03:43:29.959Z,22.60
2019-03-15T03:45:58.419Z,27.42
2019-03-15T03:48:26.894Z,22.80
2019-03-15T03:50:55.519Z,25.75
2019-03-15T03:53:24.255Z,23.92
2019-03-15T03:55:52.849Z,22.60
2019-03-15T03:58:21.420Z,21.55
2019-03-15T04:00:49.940Z,18.85
2019-03-15T04:03:18.726Z,21.97
2019-03-15T04:05:47.642Z,20.35
2019-03-15T04:08:16.162Z,21.77
2019-03-15T04:10:44.671Z,26.07
2019-03-15T04:13:13.172Z,28.35
2019-03-15T04:15:42.203Z,22.60
2019-03-15T04:18:10.663Z,26.45
2019-03-15T04:20:40.678Z,35.83
2019-03-15T04:23:11.426Z,20.37
2019-03-15T04:25:43.014Z,23.35
2019-03-15T04:28:11.457Z,22.95
2019-03-15T04:30:39.944Z,28.80
2019-03-15T04:33:08.398Z,19.98
2019-03-15T04:35:36.861Z,22.50
2019-03-15T04:38:05.432Z,23.05
2019-03-15T04:40:33.896Z,25.72
2019-03-15T04:43:02.423Z,23.55
2019-03-15T04:45:31.941Z,27.70
2019-03-15T04:48:03.217Z,26.68
2019-03-15T04:50:31.710Z,29.67
2019-03-15T04:53:00.201Z,21.27
2019-03-15T04:55:28.807Z,35.92
2019-03-15T04:57:57.332Z,25.95
2019-03-15T05:00:25.807Z,22.77
2019-03-15T05:02:54.265Z,27.13
2019-03-15T05:05:22.929Z,24.80
2019-03-15T05:07:54.907Z,24.02
2019-03-15T05:10:23.391Z,23.87
2019-03-15T05:12:56.056Z,25.48
2019-03-15T05:15:24.753Z,26.17
2019-03-15T05:17:53.275Z,31.42
2019-03-15T05:20:21.722Z,21.15
2019-03-15T05:22:50.256Z,22.55
2019-03-15T05:25:18.948Z,23.37
2019-03-15T05:27:47.521Z,31.60
2019-03-15T05:30:15.987Z,24.10
2019-03-15T05:32:44.456Z,23.90
2019-03-15T05:35:13.430Z,23.80
2019-03-15T05:37:46.164Z,25.48
2019-03-15T05:40:15.624Z,20.40
2019-03-15T05:42:44.736Z,23.00
2019-03-15T05:45:14.420Z,21.65
2019-03-15T05:47:46.040Z,24.40
2019-03-15T05:50:17.931Z,28.02
2019-03-15T05:52:46.728Z,22.05
2019-03-15T05:55:21.369Z,22.17
2019-03-15T05:57:49.952Z,26.20
2019-03-15T06:00:20.402Z,18.05
2019-03-15T06:02:49.472Z,17.70
2019-03-15T06:05:18.894Z,18.05
2019-03-15T06:07:50.445Z,23.42
2019-03-15T06:10:18.904Z,23.17
2019-03-15T06:12:48.045Z,20.70
2019-03-15T06:15:17.865Z,23.05
2019-03-15T06:17:47.402Z,23.07
2019-03-15T06:20:17.269Z,28.23
2019-03-15T06:22:46.949Z,19.00
2019-03-15T06:25:15.625Z,23.25
2019-03-15T06:27:45.681Z,25.50
2019-03-15T06:30:19.338Z,26.90
2019-03-15T06:32:49.033Z,28.95
2019-03-15T06:35:19.137Z,27.75
2019-03-15T06:37:49.687Z,26.10
2019-03-15T06:40:18.486Z,27.53
2019-03-15T06:42:47.095Z,29.70
2019-03-15T06:45:15.643Z,29.75
2019-03-15T06:47:48.135Z,30.45
2019-03-15T06:50:17.787Z,28.57
2019-03-15T06:52:46.321Z,35.30
2019-03-15T06:55:17.669Z,19.12
2019-03-15T06:57:46.227Z,19.85
2019-03-15T07:00:17.695Z,17.32
2019-03-15T07:02:46.389Z,16.62
2019-03-15T07:05:17.468Z,19.90
2019-03-15T07:07:49.892Z,16.57
2019-03-15T07:10:18.470Z,18.57
2019-03-15T07:12:47.032Z,19.80
2019-03-15T07:15:15.880Z,22.25
2019-03-15T07:17:47.795Z,21.85
2019-03-15T07:20:17.241Z,21.42
2019-03-15T07:22:45.903Z,20.40
2019-03-15T07:25:14.545Z,22.25
2019-03-15T07:27:46.543Z,22.27
2019-03-15T07:30:17.568Z,23.47
2019-03-15T07:32:47.405Z,23.20
2019-03-15T07:35:16.228Z,21.07
2019-03-15T07:37:45.737Z,24.02
2019-03-15T07:40:18.683Z,23.55
2019-03-15T07:42:48.751Z,26.82
2019-03-15T07:45:17.674Z,25.30
2019-03-15T07:47:55.573Z,28.75
2019-03-15T07:50:25.796Z,27.90
2019-03-15T07:52:54.932Z,25.72
2019-03-15T07:55:25.241Z,25.77
2019-03-15T07:57:55.818Z,24.70
2019-03-15T08:00:27.230Z,26.62
2019-03-15T08:03:00.043Z,25.17
2019-03-15T08:05:29.408Z,27.65
2019-03-15T08:07:58.028Z,28.80
2019-03-15T08:10:26.581Z,27.27
2019-03-15T08:12:55.112Z,41.23
2019-03-15T08:15:24.546Z,28.92
2019-03-15T08:17:54.596Z,22.00
2019-03-15T08:20:23.353Z,26.20
2019-03-15T08:22:51.881Z,27.77
2019-03-15T08:25:21.973Z,24.27
2019-03-15T08:27:50.453Z,25.08
2019-03-15T08:30:19.483Z,25.40
2019-03-15T08:32:48.184Z,25.48
2019-03-15T08:35:16.936Z,23.15
2019-03-15T08:37:45.531Z,24.47
2019-03-15T08:40:14.764Z,22.30
2019-03-15T08:42:43.567Z,22.77
2019-03-15T08:45:13.999Z,25.75
2019-03-15T08:47:42.753Z,25.80
2019-03-15T08:50:15.289Z,23.47
2019-03-15T08:52:44.016Z,21.37
2019-03-15T08:55:15.792Z,20.48
2019-03-15T08:57:44.231Z,30.27
2019-03-15T09:00:18.459Z,21.27
2019-03-15T09:02:46.943Z,20.15
2019-03-15T09:05:17.386Z,20.72
2019-03-15T09:07:46.998Z,24.70
2019-03-15T09:10:24.127Z,26.97
2019-03-15T09:12:52.880Z,15.60
2019-03-15T09:15:21.493Z,22.87
2019-03-15T09:17:49.979Z,18.77
2019-03-15T09:20:19.684Z,20.80
2019-03-15T09:22:48.156Z,23.87
2019-03-15T09:25:20.228Z,17.12
2019-03-15T09:27:50.167Z,14.23
2019-03-15T09:30:23.657Z,22.20
2019-03-15T09:32:49.198Z,17.55
2019-03-15T09:35:17.744Z,25.83
2019-03-15T09:37:47.657Z,25.27
2019-03-15T09:40:16.633Z,20.80
2019-03-15T09:42:47.646Z,30.20
2019-03-15T09:45:21.207Z,21.33
2019-03-15T09:47:51.328Z,19.92
2019-03-15T09:50:33.290Z,21.40
2019-03-15T09:52:56.253Z,23.98
2019-03-15T09:55:33.096Z,20.43
2019-03-15T09:57:59.918Z,20.63
2019-03-15T10:00:31.828Z,23.12
2019-03-15T10:03:01.443Z,20.70
2019-03-15T10:05:31.358Z,21.40
2019-03-15T10:07:59.846Z,18.00
2019-03-15T10:10:29.866Z,22.15
2019-03-15T10:13:05.840Z,18.70
2019-03-15T10:15:34.755Z,23.25
2019-03-15T10:18:03.343Z,19.50
2019-03-15T10:20:33.441Z,9.58
2019-03-15T10:23:06.585Z,13.38
2019-03-15T10:25:46.149Z,13.60
2019-03-15T10:28:08.367Z,22.00
2019-03-15T10:30:37.906Z,17.55
2019-03-15T10:33:06.593Z,14.55
2019-03-15T10:35:35.793Z,15.63
2019-03-15T10:38:05.309Z,17.30
2019-03-15T10:40:33.971Z,14.43
2019-03-15T10:43:02.496Z,14.65
2019-03-15T10:45:31.158Z,19.02
2019-03-15T10:48:00.634Z,21.07
2019-03-15T10:50:30.693Z,19.50
2019-03-15T10:53:00.696Z,22.37
2019-03-15T10:55:37.753Z,19.95
2019-03-15T10:58:06.377Z,20.68
2019-03-15T11:00:37.909Z,20.10
2019-03-15T11:03:06.384Z,26.75
2019-03-15T11:05:34.872Z,31.20
2019-03-15T11:08:03.459Z,19.02
2019-03-15T11:10:32.142Z,14.73
2019-03-15T11:13:00.660Z,15.48
2019-03-15T11:15:32.120Z,20.30
2019-03-15T11:18:00.590Z,18.42
2019-03-15T11:20:29.051Z,18.95
2019-03-15T11:23:01.081Z,17.62
2019-03-15T11:25:31.695Z,20.00
2019-03-15T11:28:00.318Z,20.00
2019-03-15T11:30:30.117Z,12.47
2019-03-15T11:33:00.186Z,18.27
2019-03-15T11:35:28.674Z,22.73
2019-03-15T11:37:57.153Z,15.55
2019-03-15T11:40:25.620Z,25.15
2019-03-15T11:42:54.397Z,14.43
2019-03-15T11:45:22.912Z,15.25
2019-03-15T11:48:03.470Z,13.58
2019-03-15T11:50:23.117Z,15.35
2019-03-15T11:52:51.620Z,15.70
2019-03-15T11:55:39.432Z,16.17
2019-03-15T11:58:07.919Z,9.10
2019-03-15T12:00:37.041Z,15.32
2019-03-15T12:03:06.802Z,13.55
2019-03-15T12:05:36.184Z,11.75
2019-03-15T12:08:04.985Z,16.25
2019-03-15T12:10:33.567Z,14.80
2019-03-15T12:13:03.605Z,15.28
2019-03-15T12:15:32.193Z,15.13
2019-03-15T12:18:00.736Z,10.78
2019-03-15T12:20:29.257Z,11.20
2019-03-15T12:22:57.898Z,13.65
2019-03-15T12:25:31.630Z,9.38
2019-03-15T12:28:00.260Z,14.40
2019-03-15T12:30:30.307Z,17.27
2019-03-15T12:32:58.768Z,12.75
2019-03-15T12:35:27.225Z,14.53
2019-03-15T12:37:55.711Z,13.50
2019-03-15T12:40:25.284Z,11.22
2019-03-15T12:42:53.723Z,19.00
2019-03-15T12:45:22.201Z,18.15
2019-03-15T12:47:50.670Z,13.68
2019-03-15T12:50:19.374Z,13.40
2019-03-15T12:52:48.712Z,11.33
2019-03-15T12:55:18.008Z,12.98
2019-03-15T12:57:49.304Z,13.27
2019-03-15T13:00:20.582Z,14.33
2019-03-15T13:02:49.206Z,13.65
2019-03-15T13:05:17.737Z,14.80
2019-03-15T13:07:46.328Z,15.10
2019-03-15T13:10:19.568Z,23.67
2019-03-15T13:12:48.027Z,18.50
2019-03-15T13:15:17.148Z,23.32
2019-03-15T13:17:46.264Z,20.23
2019-03-15T13:20:16.806Z,16.35
2019-03-15T13:22:45.437Z,20.37
2019-03-15T13:25:14.214Z,21.75
2019-03-15T13:27:43.238Z,18.50
2019-03-15T13:30:16.899Z,20.15
2019-03-15T13:32:45.421Z,14.95
2019-03-15T13:35:14.148Z,18.45
2019-03-15T13:37:43.366Z,13.28
2019-03-15T13:40:19.878Z,19.02
2019-03-15T13:42:49.886Z,21.95
2019-03-15T13:45:18.402Z,16.90
2019-03-15T13:47:46.932Z,23.25
2019-03-15T13:50:20.938Z,19.50
2019-03-15T13:52:49.510Z,24.20
2019-03-15T13:55:18.035Z,25.92
2019-03-15T13:57:46.715Z,12.82
2019-03-15T14:00:16.718Z,20.57
2019-03-15T14:02:45.261Z,18.87
2019-03-15T14:05:16.057Z,18.55
2019-03-15T14:07:44.621Z,19.57
2019-03-15T14:10:20.329Z,24.98
2019-03-15T14:12:48.892Z,22.27
2019-03-15T14:15:22.013Z,17.07
2019-03-15T14:17:50.471Z,15.30
2019-03-15T14:20:21.785Z,16.60
2019-03-15T14:22:59.758Z,22.87
2019-03-15T14:25:34.015Z,19.52
2019-03-15T14:28:05.568Z,18.10
2019-03-15T14:30:35.066Z,19.27
2019-03-15T14:33:05.098Z,20.68
2019-03-15T14:35:36.708Z,22.00
2019-03-15T14:38:09.292Z,19.75
2019-03-15T14:40:40.795Z,16.50
2019-03-15T14:43:09.788Z,27.87
2019-03-15T14:45:43.096Z,29.02
2019-03-15T14:48:15.443Z,23.80
2019-03-15T14:50:44.519Z,24.50
2019-03-15T14:53:14.121Z,28.73
2019-03-15T14:55:44.216Z,25.80
2019-03-15T14:58:12.935Z,27.98
2019-03-15T15:00:45.677Z,29.52
2019-03-15T15:03:16.179Z,31.60
2019-03-15T15:05:47.454Z,22.25
2019-03-15T15:08:16.679Z,26.97
2019-03-15T15:10:45.146Z,29.70
2019-03-15T15:13:13.696Z,29.10
2019-03-15T15:15:42.327Z,21.85
2019-03-15T15:18:11.168Z,24.63
2019-03-15T15:20:41.321Z,23.65
2019-03-15T15:23:11.271Z,31.93
2019-03-15T15:25:42.533Z,22.45
2019-03-15T15:28:11.048Z,25.35
2019-03-15T15:30:40.095Z,19.75
2019-03-15T15:33:10.678Z,25.40
2019-03-15T15:35:41.564Z,24.35
2019-03-15T15:38:09.431Z,20.02
2019-03-15T15:40:40.766Z,16.95
2019-03-15T15:43:11.124Z,19.57
2019-03-15T15:45:39.762Z,14.43
2019-03-15T15:48:08.231Z,22.15
2019-03-15T15:50:36.696Z,19.73
2019-03-15T15:53:05.308Z,25.65
2019-03-15T15:55:33.906Z,20.65
2019-03-15T15:58:02.373Z,25.80
2019-03-15T16:00:32.232Z,25.27
2019-03-15T16:03:00.760Z,22.60
2019-03-15T16:05:29.353Z,21.27
2019-03-15T16:07:57.836Z,22.70
2019-03-15T16:10:27.877Z,22.50
2019-03-15T16:12:58.775Z,14.95
2019-03-15T16:15:27.104Z,16.90
2019-03-15T16:17:55.602Z,17.48
2019-03-15T16:20:24.123Z,20.62
2019-03-15T16:22:54.976Z,15.45
2019-03-15T16:25:28.876Z,15.83
2019-03-15T16:27:57.405Z,18.27
2019-03-15T16:30:25.958Z,17.00
2019-03-15T16:32:56.450Z,18.70
2019-03-15T16:35:25.140Z,13.53
2019-03-15T16:37:53.624Z,13.90
2019-03-15T16:40:23.629Z,18.12
2019-03-15T16:42:56.725Z,17.27
2019-03-15T16:45:28.540Z,13.45
2019-03-15T16:48:03.056Z,21.82
2019-03-15T16:50:38.729Z,18.23
2019-03-15T16:53:08.381Z,15.20
2019-03-15T16:55:46.075Z,20.15
2019-03-15T16:58:17.550Z,16.07
2019-03-15T17:00:46.156Z,20.05
2019-03-15T17:03:14.674Z,10.05
2019-03-15T17:05:43.317Z,15.55
2019-03-15T17:08:11.801Z,21.52
2019-03-15T17:10:40.262Z,21.80
2019-03-15T17:13:10.415Z,12.82
2019-03-15T17:15:39.124Z,17.52
2019-03-15T17:18:10.801Z,19.70
2019-03-15T17:20:42.240Z,17.15
2019-03-15T17:23:14.987Z,11.53
2019-03-15T17:25:46.609Z,15.78
2019-03-15T17:28:16.728Z,17.67
2019-03-15T17:30:45.212Z,11.68
2019-03-15T17:33:14.085Z,11.88
2019-03-15T17:35:42.603Z,19.77
2019-03-15T17:38:11.077Z,16.00
2019-03-15T17:40:42.541Z,14.95
2019-03-15T17:43:11.131Z,13.08
2019-03-15T17:45:41.123Z,16.80
2019-03-15T17:48:11.365Z,13.87
2019-03-15T17:50:41.000Z,16.93
2019-03-15T17:53:09.532Z,15.43
2019-03-15T17:55:38.166Z,10.38
2019-03-15T17:58:06.743Z,9.25
2019-03-15T18:00:49.101Z,22.07
2019-03-15T18:03:21.373Z,21.75
2019-03-15T18:05:48.822Z,22.77
2019-03-15T18:08:17.402Z,12.35
2019-03-15T18:10:46.785Z,15.80
2019-03-15T18:13:15.309Z,15.75
2019-03-15T18:15:45.506Z,16.65
2019-03-15T18:18:13.987Z,18.87
2019-03-15T18:20:42.607Z,19.48
2019-03-15T18:23:11.067Z,11.55
2019-03-15T18:25:41.317Z,13.25
2019-03-15T18:28:11.167Z,17.65
2019-03-15T18:30:40.047Z,16.42
2019-03-15T18:33:10.150Z,13.15
2019-03-15T18:35:44.398Z,23.47
2019-03-15T18:38:17.898Z,15.88
2019-03-15T18:40:49.040Z,14.53
2019-03-15T18:43:17.524Z,11.15
2019-03-15T18:45:51.087Z,16.05
2019-03-15T18:48:19.548Z,13.93
2019-03-15T18:50:48.038Z,13.15
2019-03-15T18:53:17.631Z,14.93
2019-03-15T18:55:46.527Z,12.90
2019-03-15T18:58:15.011Z,15.98
2019-03-15T19:00:43.568Z,15.65
2019-03-15T19:03:13.395Z,13.15
2019-03-15T19:05:46.858Z,16.65
2019-03-15T19:10:44.935Z,10.30
2019-03-15T19:13:13.451Z,18.52
2019-03-15T19:15:43.863Z,13.57
2019-03-15T19:18:16.812Z,12.33
2019-03-15T19:20:45.528Z,16.57
2019-03-15T19:23:15.884Z,15.05
2019-03-15T19:25:44.540Z,10.63
2019-03-15T19:28:13.208Z,11.20
2019-03-15T19:30:41.685Z,17.25
2019-03-15T19:33:10.209Z,15.30
2019-03-15T19:35:43.212Z,16.90
2019-03-15T19:38:09.074Z,15.08
2019-03-15T19:40:41.949Z,14.63
2019-03-15T19:43:11.285Z,11.13
2019-03-15T19:45:39.753Z,15.45
2019-03-15T19:48:12.963Z,14.33
2019-03-15T19:50:41.650Z,14.28
2019-03-15T19:53:10.325Z,21.77
2019-03-15T19:55:38.881Z,15.67
2019-03-15T19:58:07.402Z,10.58
2019-03-15T20:00:35.942Z,8.48
2019-03-15T20:03:06.083Z,11.93
2019-03-15T20:05:34.619Z,8.28
2019-03-15T20:08:06.133Z,11.35
2019-03-15T20:10:34.751Z,11.57
2019-03-15T20:13:03.312Z,11.80
2019-03-15T20:15:31.852Z,15.03
2019-03-15T20:18:00.532Z,10.38
2019-03-15T20:20:30.526Z,12.37
2019-03-15T20:23:02.467Z,13.55
2019-03-15T20:25:32.952Z,11.68
2019-03-15T20:28:04.084Z,11.33
2019-03-15T20:30:33.022Z,16.48
2019-03-15T20:33:02.972Z,17.23
2019-03-15T20:35:31.750Z,14.85
2019-03-15T20:38:00.287Z,20.77
2019-03-15T20:40:29.967Z,20.23
2019-03-15T20:43:00.253Z,15.25
2019-03-15T20:45:30.176Z,13.78
2019-03-15T20:47:58.718Z,19.45
2019-03-15T20:50:27.215Z,19.87
2019-03-15T20:53:07.585Z,18.35
2019-03-15T20:55:31.088Z,14.25
2019-03-15T20:58:02.061Z,25.65
2019-03-15T21:00:38.619Z,18.42
2019-03-15T21:03:08.090Z,19.42
2019-03-15T21:05:36.719Z,17.17
2019-03-15T21:08:07.265Z,14.23
2019-03-15T21:10:35.784Z,13.90
2019-03-15T21:13:05.788Z,19.57
2019-03-15T21:15:38.171Z,14.50
2019-03-15T21:18:06.731Z,16.85
2019-03-15T21:20:38.782Z,20.32
2019-03-15T21:23:07.303Z,21.62
2019-03-15T21:25:38.567Z,15.65
2019-03-15T21:28:07.696Z,19.37
2019-03-15T21:30:47.947Z,21.50
2019-03-15T21:33:09.867Z,26.82
2019-03-15T21:35:40.300Z,21.52
2019-03-15T21:38:08.834Z,21.90
2019-03-15T21:40:37.431Z,17.85
2019-03-15T21:43:05.947Z,20.72
2019-03-15T21:45:34.474Z,26.02
2019-03-15T21:48:03.058Z,21.82
2019-03-15T21:50:31.601Z,22.85
2019-03-15T21:53:00.043Z,27.37
2019-03-15T21:55:28.624Z,19.15
2019-03-15T21:57:58.381Z,22.35
2019-03-15T22:00:27.101Z,19.07
2019-03-15T22:02:56.819Z,24.57
2019-03-15T22:05:25.591Z,14.98
2019-03-15T22:07:57.190Z,18.35
2019-03-15T22:10:25.667Z,18.00
2019-03-15T22:12:54.143Z,16.45
2019-03-15T22:15:27.694Z,17.17
2019-03-15T22:20:25.622Z,18.48
2019-03-15T22:22:57.457Z,15.43
2019-03-15T22:25:25.972Z,24.55
2019-03-15T22:27:54.423Z,19.75
2019-03-15T22:30:23.238Z,15.85
2019-03-15T22:32:53.269Z,21.65
2019-03-15T22:35:21.736Z,17.90
2019-03-15T22:37:50.242Z,20.12
2019-03-15T22:40:18.779Z,17.52
2019-03-15T22:42:48.203Z,14.18
2019-03-15T22:45:19.724Z,16.50
2019-03-15T22:47:51.736Z,12.70
2019-03-15T22:50:20.371Z,19.98
2019-03-15T22:52:52.083Z,16.95
2019-03-15T22:55:24.047Z,16.05
2019-03-15T22:57:59.881Z,13.50
2019-03-15T23:00:27.368Z,15.80
2019-03-15T23:02:58.619Z,14.23
2019-03-15T23:05:28.410Z,13.75
2019-03-15T23:07:56.861Z,13.27
2019-03-15T23:10:25.390Z,14.20
2019-03-15T23:12:54.880Z,11.97
2019-03-15T23:15:23.462Z,14.78
2019-03-15T23:17:52.091Z,14.67
2019-03-15T23:20:20.543Z,16.03
2019-03-15T23:22:48.991Z,13.28
2019-03-15T23:25:17.562Z,14.75
2019-03-15T23:27:46.013Z,15.58
2019-03-15T23:30:16.205Z,15.70
2019-03-15T23:32:44.743Z,15.03
2019-03-15T23:35:13.343Z,11.35
2019-03-15T23:37:42.832Z,14.33
2019-03-15T23:40:12.849Z,17.33
2019-03-15T23:42:41.302Z,14.73
2019-03-15T23:45:10.942Z,17.92
2019-03-15T23:47:39.499Z,7.62
2019-03-15T23:50:12.766Z,12.77
2019-03-15T23:52:41.309Z,10.75
2019-03-15T23:55:10.125Z,14.35
2019-03-15T23:57:38.659Z,14.05
